createdAt,value
2018-09-17T00:00:38.421Z,13.72
2018-09-17T00:05:31.507Z,14.10
2018-09-17T00:10:24.510Z,13.38
2018-09-17T00:15:17.662Z,13.75
2018-09-17T00:20:11.102Z,14.68
2018-09-17T00:25:04.318Z,14.50
2018-09-17T00:29:57.398Z,13.72
2018-09-17T00:34:50.390Z,15.45
2018-09-17T00:39:43.403Z,14.98
2018-09-17T00:44:36.482Z,15.25
2018-09-17T00:49:29.443Z,13.15
2018-09-17T00:54:22.554Z,14.13
2018-09-17T00:59:15.900Z,14.25
2018-09-17T01:04:09.419Z,13.95
2018-09-17T01:09:02.377Z,15.20
2018-09-17T01:13:56.013Z,15.53
2018-09-17T01:18:49.153Z,13.53
2018-09-17T01:23:42.179Z,15.20
2018-09-17T01:28:35.165Z,13.65
2018-09-17T01:33:28.811Z,13.28
2018-09-17T01:38:21.918Z,15.10
2018-09-17T01:43:15.165Z,14.07
2018-09-17T01:48:09.339Z,13.15
2018-09-17T01:53:02.396Z,15.93
2018-09-17T01:57:55.545Z,13.45
2018-09-17T02:02:48.667Z,15.68
2018-09-17T02:07:41.784Z,13.30
2018-09-17T02:12:35.282Z,13.68
2018-09-17T02:17:28.920Z,15.83
2018-09-17T02:22:21.999Z,13.88
2018-09-17T02:27:15.203Z,15.43
2018-09-17T02:32:08.239Z,15.35
2018-09-17T02:37:01.263Z,14.45
2018-09-17T02:41:54.613Z,16.07
2018-09-17T02:46:47.601Z,14.20
2018-09-17T02:51:40.658Z,15.25
2018-09-17T02:56:33.790Z,15.83
2018-09-17T03:01:26.849Z,14.05
2018-09-17T03:06:20.855Z,13.48
2018-09-17T03:11:14.058Z,14.23
2018-09-17T03:16:07.127Z,15.35
2018-09-17T03:21:01.058Z,14.07
2018-09-17T03:25:54.174Z,14.60
2018-09-17T03:30:47.268Z,14.50
2018-09-17T03:35:43.682Z,14.50
2018-09-17T03:40:37.063Z,16.42
2018-09-17T03:45:30.013Z,15.08
2018-09-17T03:50:23.074Z,15.75
2018-09-17T03:55:16.190Z,15.85
2018-09-17T04:00:09.174Z,15.30
2018-09-17T04:05:03.650Z,14.73
2018-09-17T04:09:56.812Z,15.63
2018-09-17T04:14:49.970Z,15.72
2018-09-17T04:19:43.368Z,14.55
2018-09-17T04:24:36.434Z,17.30
2018-09-17T04:29:30.054Z,15.78
2018-09-17T04:34:23.103Z,17.32
2018-09-17T04:39:18.189Z,17.42
2018-09-17T04:44:11.298Z,15.32
2018-09-17T04:49:04.398Z,17.07
2018-09-17T04:53:57.364Z,17.12
2018-09-17T04:58:51.418Z,16.27
2018-09-17T05:03:44.502Z,15.15
2018-09-17T05:08:37.648Z,15.35
2018-09-17T05:13:31.048Z,16.52
2018-09-17T05:18:26.138Z,18.55
2018-09-17T05:23:19.250Z,17.73
2018-09-17T05:28:12.455Z,18.30
2018-09-17T05:33:05.501Z,16.85
2018-09-17T05:37:58.636Z,17.37
2018-09-17T05:42:51.712Z,16.67
2018-09-17T05:47:44.777Z,16.05
2018-09-17T05:52:37.911Z,16.60
2018-09-17T05:57:31.141Z,17.20
2018-09-17T06:02:24.291Z,15.95
2018-09-17T06:07:17.543Z,15.18
2018-09-17T06:12:10.728Z,14.45
2018-09-17T06:17:04.119Z,15.05
2018-09-17T06:21:57.094Z,14.38
2018-09-17T06:26:50.317Z,14.40
2018-09-17T06:31:43.395Z,13.80
2018-09-17T06:36:36.419Z,15.83
2018-09-17T06:41:30.219Z,14.63
2018-09-17T06:46:24.485Z,11.43
2018-09-17T06:51:17.997Z,11.03
2018-09-17T06:56:11.400Z,12.90
2018-09-17T07:01:04.530Z,12.68
2018-09-17T07:05:57.496Z,14.70
2018-09-17T07:10:50.971Z,16.23
2018-09-17T07:15:44.184Z,15.95
2018-09-17T07:20:37.731Z,17.57
2018-09-17T07:25:31.408Z,25.02
2018-09-17T07:30:24.932Z,18.75
2018-09-17T07:35:18.467Z,16.45
2018-09-17T07:40:11.567Z,18.92
2018-09-17T07:45:08.417Z,16.20
2018-09-17T07:50:01.465Z,11.00
2018-09-17T07:54:54.566Z,11.78
2018-09-17T07:59:47.744Z,16.27
2018-09-17T08:04:42.336Z,7.90
2018-09-17T08:09:35.519Z,7.87
2018-09-17T08:14:28.557Z,8.28
2018-09-17T08:19:21.758Z,9.73
2018-09-17T08:24:14.864Z,9.18
2018-09-17T08:29:08.176Z,8.08
2018-09-17T08:34:02.087Z,10.25
2018-09-17T08:38:56.179Z,8.20
2018-09-17T08:43:49.356Z,7.83
2018-09-17T08:48:44.967Z,10.78
2018-09-17T08:53:38.144Z,7.17
2018-09-17T08:58:34.177Z,9.75
2018-09-17T09:03:32.801Z,8.60
2018-09-17T09:08:25.874Z,10.30
2018-09-17T09:13:24.546Z,8.83
2018-09-17T09:18:20.055Z,7.75
2018-09-17T09:23:13.522Z,8.68
2018-09-17T09:28:06.634Z,7.45
2018-09-17T09:33:00.224Z,9.23
2018-09-17T09:37:53.463Z,9.58
2018-09-17T09:42:46.535Z,7.30
2018-09-17T09:47:39.723Z,8.30
2018-09-17T09:52:32.833Z,11.80
2018-09-17T09:57:25.959Z,9.45
2018-09-17T10:02:24.519Z,13.45
2018-09-17T10:07:18.493Z,9.53
2018-09-17T10:12:16.841Z,11.35
2018-09-17T10:17:15.353Z,8.78
2018-09-17T10:22:08.476Z,8.00
2018-09-17T10:27:01.564Z,9.38
2018-09-17T10:31:54.590Z,9.33
2018-09-17T10:36:47.693Z,6.75
2018-09-17T10:41:41.314Z,7.45
2018-09-17T10:46:34.719Z,6.58
2018-09-17T10:51:28.827Z,11.33
2018-09-17T10:56:21.861Z,7.60
2018-09-17T11:01:15.886Z,9.98
2018-09-17T11:06:09.078Z,8.70
2018-09-17T11:11:02.529Z,8.90
2018-09-17T11:15:55.706Z,9.40
2018-09-17T11:20:49.600Z,9.23
2018-09-17T11:25:42.759Z,11.48
2018-09-17T11:30:36.220Z,9.28
2018-09-17T11:35:29.286Z,9.98
2018-09-17T11:40:22.713Z,8.65
2018-09-17T11:45:15.752Z,8.75
2018-09-17T11:50:08.926Z,7.40
2018-09-17T11:55:02.271Z,8.63
2018-09-17T11:59:55.740Z,7.33
2018-09-17T12:04:54.627Z,9.78
2018-09-17T12:09:47.775Z,8.95
2018-09-17T12:14:43.567Z,8.75
2018-09-17T12:19:36.655Z,8.85
2018-09-17T12:24:29.726Z,8.00
2018-09-17T12:29:22.953Z,9.78
2018-09-17T12:34:16.066Z,9.78
2018-09-17T12:39:10.256Z,10.65
2018-09-17T12:44:03.591Z,8.58
2018-09-17T12:48:56.736Z,7.58
2018-09-17T12:53:50.002Z,7.03
2018-09-17T12:58:43.150Z,8.63
2018-09-17T13:03:36.197Z,7.33
2018-09-17T13:08:29.396Z,8.65
2018-09-17T13:13:22.777Z,7.75
2018-09-17T13:18:15.970Z,9.90
2018-09-17T13:23:09.219Z,8.48
2018-09-17T13:28:02.435Z,9.35
2018-09-17T13:32:55.863Z,14.53
2018-09-17T13:37:48.895Z,8.25
2018-09-17T13:42:42.045Z,8.95
2018-09-17T13:47:35.318Z,8.63
2018-09-17T13:52:28.555Z,10.13
2018-09-17T13:57:22.019Z,7.47
2018-09-17T14:02:15.250Z,9.60
2018-09-17T14:07:08.728Z,7.87
2018-09-17T14:12:02.153Z,9.73
2018-09-17T14:16:55.347Z,9.85
2018-09-17T14:21:48.860Z,11.08
2018-09-17T14:26:41.996Z,12.82
2018-09-17T14:31:41.447Z,8.38
2018-09-17T14:36:34.770Z,7.90
2018-09-17T14:41:28.121Z,11.73
2018-09-17T14:46:21.878Z,10.13
2018-09-17T14:51:15.569Z,8.98
2018-09-17T14:56:08.696Z,12.25
2018-09-17T15:01:02.292Z,7.47
2018-09-17T15:05:56.879Z,10.35
2018-09-17T15:10:50.126Z,14.23
2018-09-17T15:15:50.743Z,11.08
2018-09-17T15:20:46.506Z,8.15
2018-09-17T15:25:40.043Z,9.10
2018-09-17T15:30:33.580Z,8.05
2018-09-17T15:35:29.427Z,11.35
2018-09-17T15:40:22.630Z,9.68
2018-09-17T15:45:17.072Z,8.63
2018-09-17T15:50:12.728Z,8.90
2018-09-17T15:55:11.954Z,7.53
2018-09-17T16:00:06.578Z,7.80
2018-09-17T16:05:00.956Z,9.40
2018-09-17T16:09:55.380Z,16.00
2018-09-17T16:14:51.944Z,10.45
2018-09-17T16:19:46.819Z,10.85
2018-09-17T16:24:40.490Z,9.30
2018-09-17T16:29:34.258Z,7.85
2018-09-17T16:34:29.869Z,9.35
2018-09-17T16:39:23.574Z,7.53
2018-09-17T16:44:18.024Z,6.75
2018-09-17T16:49:14.665Z,7.12
2018-09-17T16:54:08.184Z,6.85
2018-09-17T16:59:02.708Z,7.97
2018-09-17T17:04:00.914Z,9.53
2018-09-17T17:08:57.848Z,8.38
2018-09-17T17:13:50.991Z,7.67
2018-09-17T17:18:44.474Z,8.20
2018-09-17T17:23:37.631Z,8.23
2018-09-17T17:28:30.926Z,9.35
2018-09-17T17:33:24.186Z,5.83
2018-09-17T17:38:21.329Z,6.92
2018-09-17T17:43:15.187Z,7.08
2018-09-17T17:48:09.312Z,6.67
2018-09-17T17:53:02.567Z,5.58
2018-09-17T17:57:56.279Z,5.58
2018-09-17T18:02:49.633Z,6.92
2018-09-17T18:07:43.667Z,10.10
2018-09-17T18:12:37.757Z,5.58
2018-09-17T18:17:31.918Z,8.45
2018-09-17T18:22:25.405Z,13.35
2018-09-17T18:27:18.580Z,7.62
2018-09-17T18:32:12.410Z,10.90
2018-09-17T18:37:06.165Z,6.42
2018-09-17T18:42:00.076Z,6.17
2018-09-17T18:46:53.391Z,7.20
2018-09-17T18:51:47.853Z,7.05
2018-09-17T18:56:42.509Z,6.28
2018-09-17T19:01:36.740Z,6.70
2018-09-17T19:06:31.104Z,5.22
2018-09-17T19:11:25.554Z,11.12
2018-09-17T19:16:23.994Z,6.50
2018-09-17T19:21:17.335Z,7.05
2018-09-17T19:26:10.784Z,7.72
2018-09-17T19:31:04.795Z,6.85
2018-09-17T19:35:59.303Z,6.80
2018-09-17T19:40:52.717Z,9.15
2018-09-17T19:45:53.073Z,9.08
2018-09-17T19:50:51.993Z,5.90
2018-09-17T19:55:45.876Z,11.33
2018-09-17T20:00:40.230Z,9.50
2018-09-17T20:05:39.891Z,5.40
2018-09-17T20:10:33.879Z,5.67
2018-09-17T20:15:27.340Z,8.83
2018-09-17T20:20:20.653Z,7.40
2018-09-17T20:25:15.524Z,7.70
2018-09-17T20:30:08.948Z,8.23
2018-09-17T20:35:02.508Z,7.78
2018-09-17T20:39:57.842Z,6.10
2018-09-17T20:44:52.857Z,7.33
2018-09-17T20:49:47.176Z,7.78
2018-09-17T20:54:40.242Z,6.33
2018-09-17T20:59:34.941Z,7.45
2018-09-17T21:04:28.211Z,5.80
2018-09-17T21:09:22.140Z,6.92
2018-09-17T21:14:16.152Z,6.75
2018-09-17T21:19:10.603Z,6.47
2018-09-17T21:24:04.144Z,8.48
2018-09-17T21:28:59.582Z,6.20
2018-09-17T21:33:53.451Z,7.03
2018-09-17T21:38:48.856Z,6.30
2018-09-17T21:43:43.077Z,6.42
2018-09-17T21:48:36.706Z,7.37
2018-09-17T21:53:33.036Z,5.97
2018-09-17T21:58:30.770Z,6.72
2018-09-17T22:03:24.527Z,5.80
2018-09-17T22:08:18.038Z,8.60
2018-09-17T22:13:11.259Z,5.55
2018-09-17T22:18:04.405Z,7.25
2018-09-17T22:22:57.494Z,6.85
2018-09-17T22:27:50.491Z,5.00
2018-09-17T22:32:43.502Z,5.92
2018-09-17T22:37:36.615Z,8.48
2018-09-17T22:42:30.036Z,6.05
2018-09-17T22:47:23.113Z,6.03
2018-09-17T22:52:16.126Z,6.05
2018-09-17T22:57:09.270Z,11.10
2018-09-17T23:02:02.344Z,5.75
2018-09-17T23:06:55.311Z,7.58
2018-09-17T23:11:48.505Z,8.05
2018-09-17T23:16:41.619Z,6.00
2018-09-17T23:21:34.808Z,6.37
2018-09-17T23:26:28.054Z,5.97
2018-09-17T23:31:21.565Z,7.60
2018-09-17T23:36:14.773Z,7.10
2018-09-17T23:41:07.943Z,5.92
2018-09-17T23:46:01.190Z,6.95
2018-09-17T23:50:54.371Z,6.78
2018-09-17T23:55:47.418Z,8.00
